createdAt,value
2018-12-27T00:01:48.348Z,17.83
2018-12-27T00:04:36.619Z,17.43
2018-12-27T00:07:24.674Z,17.50
2018-12-27T00:10:32.320Z,17.23
2018-12-27T00:13:20.405Z,17.87
2018-12-27T00:15:49.399Z,18.17
2018-12-27T00:18:37.702Z,18.10
2018-12-27T00:21:06.414Z,17.13
2018-12-27T00:23:54.875Z,19.27
2018-12-27T00:26:36.325Z,18.27
2018-12-27T00:29:17.512Z,19.07
2018-12-27T00:31:58.402Z,19.07
2018-12-27T00:34:39.385Z,19.13
2018-12-27T00:37:20.281Z,18.33
2018-12-27T00:42:43.473Z,19.77
2018-12-27T00:45:24.932Z,19.40
2018-12-27T00:48:06.398Z,18.97
2018-12-27T00:50:46.885Z,19.57
2018-12-27T00:53:29.457Z,20.27
2018-12-27T00:55:59.094Z,19.80
2018-12-27T00:58:47.365Z,19.27
2018-12-27T01:01:35.665Z,20.77
2018-12-27T01:04:23.861Z,20.13
2018-12-27T01:07:12.353Z,20.20
2018-12-27T01:09:41.867Z,19.23
2018-12-27T01:12:30.062Z,18.73
2018-12-27T01:15:18.668Z,18.67
2018-12-27T01:18:06.879Z,18.57
2018-12-27T01:20:55.045Z,18.57
2018-12-27T01:23:44.002Z,17.20
2018-12-27T01:26:25.310Z,18.67
2018-12-27T01:28:55.260Z,18.73
2018-12-27T01:31:50.469Z,18.60
2018-12-27T01:34:33.356Z,17.47
2018-12-27T01:37:21.763Z,18.13
2018-12-27T01:40:10.044Z,16.67
2018-12-27T01:42:58.495Z,17.67
2018-12-27T01:45:46.679Z,17.63
2018-12-27T01:48:34.886Z,16.97
2018-12-27T01:51:04.010Z,17.63
2018-12-27T01:53:52.510Z,16.93
2018-12-27T01:56:40.745Z,17.10
2018-12-27T01:59:29.186Z,17.50
2018-12-27T02:01:58.656Z,17.53
2018-12-27T02:04:47.097Z,16.63
2018-12-27T02:07:55.800Z,16.67
2018-12-27T02:10:43.987Z,16.97
2018-12-27T02:13:32.139Z,16.17
2018-12-27T02:16:20.402Z,17.23
2018-12-27T02:19:14.360Z,16.43
2018-12-27T02:22:02.554Z,17.23
2018-12-27T02:24:51.003Z,16.30
2018-12-27T02:27:32.008Z,16.90
2018-12-27T02:30:13.775Z,16.27
2018-12-27T02:35:25.173Z,16.57
2018-12-27T02:38:13.612Z,16.93
2018-12-27T02:40:42.927Z,15.90
2018-12-27T02:43:31.616Z,17.23
2018-12-27T02:46:19.996Z,17.03
2018-12-27T02:49:08.292Z,16.47
2018-12-27T02:51:56.903Z,16.40
2018-12-27T02:54:45.101Z,17.13
2018-12-27T02:57:33.293Z,16.33
2018-12-27T03:00:21.826Z,15.73
2018-12-27T03:03:10.095Z,16.50
2018-12-27T03:05:58.629Z,16.23
2018-12-27T03:08:47.029Z,17.13
2018-12-27T03:11:35.298Z,15.97
2018-12-27T03:14:16.132Z,16.47
2018-12-27T03:16:57.042Z,16.37
2018-12-27T03:19:26.693Z,15.63
2018-12-27T03:22:14.854Z,15.97
2018-12-27T03:25:03.059Z,17.10
2018-12-27T03:27:50.774Z,16.67
2018-12-27T03:30:38.420Z,16.13
2018-12-27T03:33:26.904Z,16.50
2018-12-27T03:36:15.416Z,15.60
2018-12-27T03:39:04.610Z,16.17
2018-12-27T03:41:52.790Z,16.30
2018-12-27T03:44:41.078Z,16.43
2018-12-27T03:47:29.868Z,15.27
2018-12-27T03:50:18.348Z,15.40
2018-12-27T03:52:47.705Z,16.63
2018-12-27T03:55:35.950Z,16.47
2018-12-27T03:58:24.219Z,17.37
2018-12-27T04:01:12.562Z,16.17
2018-12-27T04:04:01.593Z,17.17
2018-12-27T04:06:51.147Z,16.73
2018-12-27T04:09:39.635Z,16.67
2018-12-27T04:12:20.492Z,17.63
2018-12-27T04:15:01.185Z,17.57
2018-12-27T04:17:41.958Z,15.87
2018-12-27T04:20:23.089Z,17.40
2018-12-27T04:22:57.339Z,16.83
2018-12-27T04:25:45.536Z,16.80
2018-12-27T04:31:03.883Z,17.57
2018-12-27T04:33:51.859Z,17.57
2018-12-27T04:36:40.178Z,16.43
2018-12-27T04:39:28.228Z,17.00
2018-12-27T04:41:57.319Z,17.43
2018-12-27T04:44:45.902Z,16.83
2018-12-27T04:47:34.366Z,16.60
2018-12-27T04:50:22.708Z,17.30
2018-12-27T04:53:13.109Z,17.60
2018-12-27T04:56:01.573Z,17.27
2018-12-27T04:58:49.953Z,17.00
2018-12-27T05:01:38.269Z,16.60
2018-12-27T05:04:22.197Z,16.70
2018-12-27T05:07:03.720Z,18.13
2018-12-27T05:09:44.990Z,18.10
2018-12-27T05:12:27.954Z,16.77
2018-12-27T05:15:08.726Z,16.67
2018-12-27T05:17:49.610Z,15.97
2018-12-27T05:20:30.735Z,17.67
2018-12-27T05:23:11.562Z,18.40
2018-12-27T05:25:52.104Z,18.00
2018-12-27T05:28:33.451Z,18.63
2018-12-27T05:34:16.943Z,17.30
2018-12-27T05:36:57.522Z,18.20
2018-12-27T05:42:21.029Z,16.63
2018-12-27T05:45:02.684Z,16.77
2018-12-27T05:47:43.164Z,18.13
2018-12-27T05:53:06.725Z,17.60
2018-12-27T05:55:47.842Z,17.83
2018-12-27T05:58:29.323Z,17.93
2018-12-27T06:01:10.268Z,18.57
2018-12-27T06:03:51.699Z,18.17
2018-12-27T06:06:32.786Z,18.73
2018-12-27T06:09:13.538Z,18.07
2018-12-27T06:11:53.950Z,18.77
2018-12-27T06:14:34.902Z,18.80
2018-12-27T06:17:16.099Z,19.00
2018-12-27T06:19:56.698Z,19.57
2018-12-27T06:22:38.047Z,19.83
2018-12-27T06:25:18.657Z,19.03
2018-12-27T06:31:00.910Z,19.33
2018-12-27T06:33:42.031Z,18.83
2018-12-27T06:39:05.838Z,19.47
2018-12-27T06:41:46.975Z,20.03
2018-12-27T06:44:28.291Z,21.37
2018-12-27T06:47:09.997Z,20.57
2018-12-27T06:49:50.796Z,19.70
2018-12-27T06:52:31.664Z,20.20
2018-12-27T06:55:12.978Z,21.57
2018-12-27T06:57:53.688Z,20.23
2018-12-27T07:03:17.372Z,18.97
2018-12-27T07:18:15.100Z,19.70
2018-12-27T07:20:44.207Z,21.57
2018-12-27T07:23:13.225Z,20.80
2018-12-27T07:25:51.085Z,20.17
2018-12-27T07:28:19.905Z,20.93
2018-12-27T07:30:49.080Z,19.77
2018-12-27T07:33:18.391Z,18.90
2018-12-27T07:35:47.563Z,19.20
2018-12-27T07:38:16.621Z,20.07
2018-12-27T07:40:46.385Z,20.03
2018-12-27T07:43:15.278Z,19.90
2018-12-27T07:45:53.317Z,19.53
2018-12-27T07:48:22.377Z,19.17
2018-12-27T07:50:52.581Z,20.23
2018-12-27T07:53:24.782Z,19.47
2018-12-27T07:56:07.814Z,20.73
2018-12-27T07:58:36.639Z,20.57
2018-12-27T08:01:05.758Z,20.33
2018-12-27T08:03:34.558Z,21.53
2018-12-27T08:06:12.764Z,20.50
2018-12-27T08:08:41.663Z,21.17
2018-12-27T08:11:10.803Z,21.20
2018-12-27T08:13:39.745Z,21.30
2018-12-27T08:16:18.342Z,21.17
2018-12-27T08:18:47.471Z,20.33
2018-12-27T08:21:16.937Z,18.90
2018-12-27T08:23:47.330Z,18.87
2018-12-27T08:26:29.720Z,19.53
2018-12-27T08:29:00.164Z,18.13
2018-12-27T08:31:29.850Z,18.67
2018-12-27T08:33:59.144Z,18.63
2018-12-27T08:36:37.956Z,18.47
2018-12-27T08:39:08.075Z,18.63
2018-12-27T08:41:37.334Z,19.50
2018-12-27T08:44:06.259Z,19.30
2018-12-27T08:46:44.729Z,18.37
2018-12-27T08:49:13.993Z,17.97
2018-12-27T08:51:42.967Z,19.73
2018-12-27T08:54:12.562Z,19.00
2018-12-27T08:56:51.175Z,19.60
2018-12-27T08:59:20.467Z,19.23
2018-12-27T09:01:49.730Z,18.30
2018-12-27T09:04:18.504Z,19.23
2018-12-27T09:06:56.289Z,18.37
2018-12-27T09:09:25.470Z,19.47
2018-12-27T09:11:54.267Z,17.40
2018-12-27T09:14:24.039Z,16.97
2018-12-27T09:17:02.086Z,17.47
2018-12-27T09:19:30.936Z,18.10
2018-12-27T09:22:00.016Z,18.00
2018-12-27T09:24:37.474Z,17.27
2018-12-27T09:27:15.400Z,17.70
2018-12-27T09:29:44.893Z,18.43
2018-12-27T09:32:13.907Z,15.80
2018-12-27T09:34:42.733Z,16.90
2018-12-27T09:37:21.983Z,16.97
2018-12-27T09:39:51.370Z,15.70
2018-12-27T09:42:20.344Z,15.57
2018-12-27T09:47:44.588Z,16.57
2018-12-27T09:50:13.345Z,17.87
2018-12-27T09:52:42.234Z,16.67
2018-12-27T09:55:13.939Z,14.60
2018-12-27T09:57:52.057Z,15.97
2018-12-27T10:00:21.222Z,15.37
2018-12-27T10:02:50.595Z,17.27
2018-12-27T10:05:19.412Z,16.83
2018-12-27T10:10:35.185Z,16.33
2018-12-27T10:13:04.433Z,15.80
2018-12-27T10:15:33.299Z,15.60
2018-12-27T10:18:11.271Z,15.27
2018-12-27T10:20:40.031Z,16.50
2018-12-27T10:23:08.774Z,16.17
2018-12-27T10:25:37.985Z,15.83
2018-12-27T10:28:16.846Z,16.03
2018-12-27T10:30:46.039Z,15.50
2018-12-27T10:33:15.014Z,16.83
2018-12-27T10:35:44.307Z,16.53
2018-12-27T10:38:22.333Z,16.00
2018-12-27T10:40:51.168Z,15.50
2018-12-27T10:43:20.771Z,16.07
2018-12-27T10:45:49.980Z,15.50
2018-12-27T10:48:29.392Z,15.23
2018-12-27T10:50:58.532Z,14.93
2018-12-27T10:53:27.859Z,16.00
2018-12-27T10:55:57.476Z,15.27
2018-12-27T10:58:32.204Z,15.70
2018-12-27T11:01:01.716Z,16.33
2018-12-27T11:03:31.043Z,16.10
2018-12-27T11:06:00.185Z,16.53
2018-12-27T11:08:29.955Z,18.07
2018-12-27T11:10:59.660Z,17.57
2018-12-27T11:13:28.549Z,16.33
2018-12-27T11:15:57.997Z,15.90
2018-12-27T11:21:11.304Z,15.97
2018-12-27T11:23:40.900Z,16.40
2018-12-27T11:26:09.737Z,15.87
2018-12-27T11:28:48.016Z,16.00
2018-12-27T11:31:17.350Z,15.93
2018-12-27T11:33:46.442Z,15.63
2018-12-27T11:36:17.431Z,15.87
2018-12-27T11:38:55.698Z,15.23
2018-12-27T11:41:25.151Z,15.90
2018-12-27T11:43:54.877Z,16.13
2018-12-27T11:46:24.126Z,15.87
2018-12-27T11:48:52.875Z,16.17
2018-12-27T11:51:21.728Z,16.23
2018-12-27T11:53:51.695Z,16.63
2018-12-27T11:56:21.094Z,16.43
2018-12-27T11:59:00.022Z,16.17
2018-12-27T12:01:37.399Z,14.53
2018-12-27T12:04:06.842Z,16.40
2018-12-27T12:09:26.237Z,15.03
2018-12-27T12:11:55.370Z,15.17
2018-12-27T12:14:24.870Z,16.70
2018-12-27T12:17:05.496Z,17.23
2018-12-27T12:19:33.963Z,15.90
2018-12-27T12:22:02.860Z,15.90
2018-12-27T12:24:31.799Z,14.40
2018-12-27T12:27:10.178Z,15.90
2018-12-27T12:29:39.345Z,15.47
2018-12-27T12:32:09.073Z,15.40
2018-12-27T12:34:39.110Z,16.20
2018-12-27T12:37:17.361Z,15.50
2018-12-27T12:39:46.252Z,14.43
2018-12-27T12:42:17.360Z,15.77
2018-12-27T12:44:46.523Z,16.20
2018-12-27T12:47:24.726Z,15.90
2018-12-27T12:49:53.735Z,14.87
2018-12-27T12:52:22.884Z,15.07
2018-12-27T12:54:52.098Z,15.97
2018-12-27T13:00:07.302Z,16.07
2018-12-27T13:02:36.837Z,15.53
2018-12-27T13:05:05.945Z,13.87
2018-12-27T13:10:18.087Z,16.47
2018-12-27T13:12:47.057Z,14.97
2018-12-27T13:15:15.881Z,15.57
2018-12-27T13:17:54.101Z,14.80
2018-12-27T13:20:23.011Z,14.97
2018-12-27T13:22:54.515Z,14.90
2018-12-27T13:25:23.490Z,15.67
2018-12-27T13:28:01.835Z,14.43
2018-12-27T13:30:31.753Z,14.97
2018-12-27T13:33:00.549Z,14.67
2018-12-27T13:35:29.655Z,14.77
2018-12-27T13:38:07.819Z,14.13
2018-12-27T13:40:37.439Z,15.20
2018-12-27T13:43:08.521Z,15.17
2018-12-27T13:45:37.702Z,15.47
2018-12-27T13:48:15.748Z,14.50
2018-12-27T13:50:44.896Z,14.17
2018-12-27T13:53:13.985Z,15.07
2018-12-27T13:55:45.138Z,14.80
2018-12-27T13:58:23.180Z,14.87
2018-12-27T14:00:52.641Z,13.83
2018-12-27T14:03:21.707Z,14.60
2018-12-27T14:05:53.349Z,15.33
2018-12-27T14:11:07.510Z,14.23
2018-12-27T14:13:36.630Z,15.13
2018-12-27T14:16:05.466Z,13.80
2018-12-27T14:18:43.479Z,12.80
2018-12-27T14:21:12.785Z,13.83
2018-12-27T14:23:41.514Z,14.03
2018-12-27T14:26:10.342Z,13.80
2018-12-27T14:28:47.949Z,13.70
2018-12-27T14:31:16.853Z,13.70
2018-12-27T14:33:46.034Z,13.10
2018-12-27T14:36:14.787Z,13.57
2018-12-27T14:38:52.983Z,14.60
2018-12-27T14:41:22.177Z,13.63
2018-12-27T14:43:54.593Z,14.77
2018-12-27T14:46:23.734Z,13.80
2018-12-27T14:49:01.822Z,14.37
2018-12-27T14:51:30.589Z,14.10
2018-12-27T14:54:00.085Z,13.67
2018-12-27T14:56:29.278Z,14.67
2018-12-27T14:59:07.324Z,14.07
2018-12-27T15:01:36.938Z,14.60
2018-12-27T15:04:06.186Z,13.90
2018-12-27T15:06:38.683Z,14.53
2018-12-27T15:09:17.114Z,15.93
2018-12-27T15:11:46.112Z,14.03
2018-12-27T15:14:15.368Z,14.87
2018-12-27T15:16:45.066Z,14.77
2018-12-27T15:19:23.852Z,15.47
2018-12-27T15:21:52.655Z,16.53
2018-12-27T15:24:21.944Z,16.83
2018-12-27T15:26:53.696Z,17.27
2018-12-27T15:29:31.753Z,17.77
2018-12-27T15:32:00.744Z,17.40
2018-12-27T15:34:29.690Z,17.37
2018-12-27T15:36:59.017Z,18.20
2018-12-27T15:39:28.830Z,17.33
2018-12-27T15:41:59.457Z,16.63
2018-12-27T15:44:28.463Z,16.67
2018-12-27T15:46:57.676Z,17.40
2018-12-27T15:49:26.581Z,16.27
2018-12-27T15:51:55.622Z,15.73
2018-12-27T15:54:24.655Z,15.70
2018-12-27T15:56:53.826Z,15.37
2018-12-27T15:59:32.011Z,14.40
2018-12-27T16:02:01.236Z,15.57
2018-12-27T16:04:30.213Z,15.27
2018-12-27T16:07:01.998Z,15.83
2018-12-27T16:09:29.686Z,15.60
2018-12-27T16:11:59.045Z,15.93
2018-12-27T16:14:27.884Z,15.77
2018-12-27T16:16:58.216Z,17.03
2018-12-27T16:19:36.189Z,15.80
2018-12-27T16:22:05.083Z,16.47
2018-12-27T16:24:34.257Z,15.53
2018-12-27T16:27:03.174Z,15.97
2018-12-27T16:29:40.899Z,15.97
2018-12-27T16:32:09.849Z,15.83
2018-12-27T16:34:38.605Z,16.20
2018-12-27T16:37:09.147Z,20.43
2018-12-27T16:39:49.377Z,16.40
2018-12-27T16:42:21.855Z,15.90
2018-12-27T16:44:51.041Z,16.03
2018-12-27T16:47:20.060Z,14.87
2018-12-27T16:49:58.022Z,14.70
2018-12-27T16:52:27.220Z,15.07
2018-12-27T16:54:56.011Z,14.33
2018-12-27T16:57:24.896Z,14.53
2018-12-27T17:00:07.723Z,14.00
2018-12-27T17:02:37.282Z,14.37
2018-12-27T17:05:08.140Z,15.03
2018-12-27T17:07:56.074Z,13.37
2018-12-27T17:10:25.201Z,14.80
2018-12-27T17:12:54.557Z,14.10
2018-12-27T17:15:24.163Z,13.97
2018-12-27T17:17:53.689Z,14.40
2018-12-27T17:20:23.485Z,13.73
2018-12-27T17:22:52.630Z,13.30
2018-12-27T17:25:21.671Z,12.83
2018-12-27T17:27:59.863Z,12.77
2018-12-27T17:30:28.945Z,13.27
2018-12-27T17:32:58.199Z,15.13
2018-12-27T17:35:27.958Z,17.03
2018-12-27T17:40:42.447Z,15.13
2018-12-27T17:43:12.219Z,15.07
2018-12-27T17:45:41.545Z,15.00
2018-12-27T17:50:53.570Z,23.67
2018-12-27T17:53:22.683Z,23.97
2018-12-27T17:55:51.901Z,24.60
2018-12-27T17:58:30.483Z,23.77
2018-12-27T18:00:59.833Z,22.10
2018-12-27T18:03:31.798Z,22.30
2018-12-27T18:06:00.889Z,21.87
2018-12-27T18:08:39.238Z,22.13
2018-12-27T18:11:08.680Z,23.20
2018-12-27T18:13:37.829Z,21.17
2018-12-27T18:16:09.892Z,20.43
2018-12-27T18:18:47.870Z,20.23
2018-12-27T18:21:17.139Z,19.60
2018-12-27T18:23:46.451Z,21.73
2018-12-27T18:26:15.630Z,21.13
2018-12-27T18:28:53.873Z,20.90
2018-12-27T18:33:59.202Z,20.07
2018-12-27T18:36:28.201Z,20.93
2018-12-27T18:39:06.948Z,21.03
2018-12-27T18:41:35.915Z,21.20
2018-12-27T18:44:05.030Z,20.80
2018-12-27T18:46:34.362Z,18.67
2018-12-27T18:49:12.746Z,21.23
2018-12-27T18:54:17.136Z,17.83
2018-12-27T18:56:46.455Z,20.30
2018-12-27T18:59:25.222Z,19.47
2018-12-27T19:01:54.606Z,21.60
2018-12-27T19:04:32.619Z,19.90
2018-12-27T19:07:01.989Z,21.27
2018-12-27T19:09:40.861Z,19.73
2018-12-27T19:12:45.920Z,21.33
2018-12-27T19:15:20.506Z,22.33
2018-12-27T19:18:30.153Z,23.87
2018-12-27T19:21:14.035Z,20.10
2018-12-27T19:23:42.953Z,22.40
2018-12-27T19:26:17.276Z,21.43
2018-12-27T19:28:55.494Z,19.33
2018-12-27T19:31:24.379Z,19.03
2018-12-27T19:33:53.781Z,19.77
2018-12-27T19:36:22.803Z,19.27
2018-12-27T19:41:38.214Z,18.47
2018-12-27T19:44:07.489Z,18.80
2018-12-27T19:46:36.333Z,19.17
2018-12-27T19:49:14.247Z,20.07
2018-12-27T19:51:43.723Z,19.50
2018-12-27T19:54:13.225Z,20.53
2018-12-27T19:56:42.503Z,21.53
2018-12-27T19:59:21.632Z,23.53
2018-12-27T20:01:52.799Z,20.00
2018-12-27T20:04:23.442Z,21.47
2018-12-27T20:06:56.082Z,20.03
2018-12-27T20:09:34.490Z,19.90
2018-12-27T20:12:03.269Z,22.87
2018-12-27T20:14:32.682Z,22.67
2018-12-27T20:17:02.249Z,20.63
2018-12-27T20:22:15.415Z,20.37
2018-12-27T20:24:44.616Z,20.37
2018-12-27T20:27:13.655Z,19.20
2018-12-27T20:32:26.539Z,19.60
2018-12-27T20:34:55.595Z,19.77
2018-12-27T20:37:24.582Z,21.00
2018-12-27T20:42:39.358Z,23.53
2018-12-27T20:45:08.886Z,22.13
2018-12-27T20:47:37.909Z,23.53
2018-12-27T20:50:20.374Z,20.97
2018-12-27T20:52:49.379Z,19.23
2018-12-27T20:55:18.609Z,21.37
2018-12-27T20:57:47.986Z,19.13
2018-12-27T21:00:28.677Z,19.47
2018-12-27T21:03:01.627Z,18.27
2018-12-27T21:05:30.531Z,18.97
2018-12-27T21:07:59.944Z,20.90
2018-12-27T21:10:37.624Z,20.60
2018-12-27T21:13:07.204Z,21.23
2018-12-27T21:15:36.209Z,22.70
2018-12-27T21:18:05.524Z,25.40
2018-12-27T21:20:43.681Z,21.53
2018-12-27T21:23:12.879Z,21.97
2018-12-27T21:25:41.827Z,23.00
2018-12-27T21:28:31.234Z,23.27
2018-12-27T21:31:05.124Z,21.97
2018-12-27T21:33:37.047Z,20.23
2018-12-27T21:36:06.486Z,19.80
2018-12-27T21:38:46.926Z,20.37
2018-12-27T21:41:16.221Z,19.60
2018-12-27T21:43:45.566Z,19.83
2018-12-27T21:46:14.762Z,19.80
2018-12-27T21:48:53.119Z,17.43
2018-12-27T21:51:23.647Z,17.97
2018-12-27T21:53:52.733Z,18.70
2018-12-27T21:56:21.791Z,18.10
2018-12-27T22:01:34.903Z,19.50
2018-12-27T22:04:04.145Z,19.17
2018-12-27T22:06:42.290Z,18.30
2018-12-27T22:09:20.512Z,18.80
2018-12-27T22:11:49.832Z,18.50
2018-12-27T22:14:28.849Z,17.70
2018-12-27T22:16:57.830Z,18.93
2018-12-27T22:19:36.181Z,17.00
2018-12-27T22:22:04.890Z,17.90
2018-12-27T22:24:33.830Z,17.40
2018-12-27T22:27:03.085Z,17.03
2018-12-27T22:29:42.341Z,17.67
2018-12-27T22:32:11.779Z,17.87
2018-12-27T22:34:52.275Z,16.73
2018-12-27T22:37:23.388Z,16.33
2018-12-27T22:40:01.187Z,18.30
2018-12-27T22:42:30.256Z,18.87
2018-12-27T22:44:59.224Z,19.90
2018-12-27T22:47:30.171Z,20.43
2018-12-27T22:52:43.725Z,21.00
2018-12-27T22:55:12.853Z,22.20
2018-12-27T22:57:44.183Z,20.43
2018-12-27T23:00:42.792Z,21.77
2018-12-27T23:03:11.716Z,21.73
2018-12-27T23:05:46.313Z,20.60
2018-12-27T23:08:15.057Z,21.60
2018-12-27T23:10:52.706Z,22.10
2018-12-27T23:13:22.576Z,20.87
2018-12-27T23:15:51.333Z,22.07
2018-12-27T23:18:20.070Z,21.40
2018-12-27T23:20:58.314Z,19.70
2018-12-27T23:23:27.144Z,21.73
2018-12-27T23:25:57.604Z,21.13
2018-12-27T23:28:26.673Z,19.50
2018-12-27T23:33:42.118Z,19.87
2018-12-27T23:36:36.143Z,17.93
2018-12-27T23:41:47.902Z,19.20
2018-12-27T23:44:16.598Z,18.53
2018-12-27T23:46:45.374Z,18.53
2018-12-27T23:49:37.939Z,19.50
2018-12-27T23:52:08.382Z,20.53
2018-12-27T23:54:39.994Z,22.20
2018-12-27T23:57:08.756Z,21.70
